Huvudsida
METAR-TAF:

METAR-TAF

Flygplatser :

Hagåtña, Guam, USA

Antonio B. Won Pat International Airport

latitud: 13-29N, longitud: 144-48E, höjd: 91 m

Aktuellt väderrapport

Denna rapport gjordes för 22 minuter sedan, klockan 08:31 UTC
Vind 9 kt från ost
Temperatur 28°C
Fuktighet 94%
Tryck 1009 hPa
Sikt: 16.1 km
Få moln på en höjd av 1200 ft
Spridda moln på en höjd av 2500 ft

METAR: PGUM 250831Z 09009KT 10SM FEW012 SCT025 28/27 A2980 RMK AO2 T02830272

Tid: 18:53 (08:53 UTC)

Väderprognos

Denna rapport gjordes för 1 timme och 52 minuter sedan, klockan 07:01 UTC
Prognos gäller från 25 kl. 07 UTC till 26 kl. 12 UTC
Vind 11 kt från ost
Sikt: 10 km
Få moln på en höjd av 1700 ft
Spridda moln på en höjd av 2500 ft
skurar i närheten

TAF: PGUM 250701Z 2507/2612 09011KT P6SM VCSH FEW017 SCT025

Aktuella väderrapporter och prognoser från 4000 flygplatser (METAR- och TAF-rapporter).

De tillgängliga stationerna syns som gula och röda prickar på kartan.

För musen över prickarna för att se namnen på stationerna.

Klicka sedan för att få väderrapporter och prognoser.

För att ändra kartan: Klicka på de gröna knapparna med ett svart kors på för att zooma in; den gröna knappen med ett streck på för att zooma ut; eller på de gröna pilarna för angränsande kartor.


METAR-TAF: